sensor_id;sensor_type;location;lat;lon;timestamp;pressure;altitude;pressure_sealevel;temperature;humidity
26489;BME280;14169;43.684;10.484;2022-10-16T00:01:20;101994.97;;;17.26;100.00
26489;BME280;14169;43.684;10.484;2022-10-16T00:03:47;102002.91;;;17.25;100.00
26489;BME280;14169;43.684;10.484;2022-10-16T00:06:14;101990.59;;;17.25;100.00
26489;BME280;14169;43.684;10.484;2022-10-16T00:08:40;101996.81;;;17.24;100.00
26489;BME280;14169;43.684;10.484;2022-10-16T00:11:12;101993.31;;;17.24;100.00
26489;BME280;14169;43.684;10.484;2022-10-16T00:13:39;101996.81;;;17.24;100.00
26489;BME280;14169;43.684;10.484;2022-10-16T00:16:06;101996.81;;;17.24;100.00
26489;BME280;14169;43.684;10.484;2022-10-16T00:18:32;102009.84;;;17.27;100.00
26489;BME280;14169;43.684;10.484;2022-10-16T00:21:04;102011.59;;;17.27;100.00
26489;BME280;14169;43.684;10.484;2022-10-16T00:23:30;102000.16;;;17.28;100.00
26489;BME280;14169;43.684;10.484;2022-10-16T00:26:01;102007.94;;;17.31;100.00
26489;BME280;14169;43.684;10.484;2022-10-16T00:28:27;102001.84;;;17.30;100.00
26489;BME280;14169;43.684;10.484;2022-10-16T00:30:53;102014.81;;;17.35;100.00
26489;BME280;14169;43.684;10.484;2022-10-16T00:33:18;102013.78;;;17.39;100.00
26489;BME280;14169;43.684;10.484;2022-10-16T00:35:44;102005.84;;;17.40;100.00
26489;BME280;14169;43.684;10.484;2022-10-16T00:38:10;102007.53;;;17.41;100.00
26489;BME280;14169;43.684;10.484;2022-10-16T00:40:35;102009.28;;;17.42;100.00
26489;BME280;14169;43.684;10.484;2022-10-16T00:43:00;102011.91;;;17.42;100.00
26489;BME280;14169;43.684;10.484;2022-10-16T00:45:26;102009.22;;;17.44;100.00
26489;BME280;14169;43.684;10.484;2022-10-16T00:47:53;102012.66;;;17.46;100.00
26489;BME280;14169;43.684;10.484;2022-10-16T00:50:28;102017.13;;;17.44;100.00
26489;BME280;14169;43.684;10.484;2022-10-16T00:52:55;102010.13;;;17.43;100.00
26489;BME280;14169;43.684;10.484;2022-10-16T00:55:22;102017.22;;;17.41;100.00
26489;BME280;14169;43.684;10.484;2022-10-16T00:57:48;102008.41;;;17.42;100.00
26489;BME280;14169;43.684;10.484;2022-10-16T01:00:20;102006.81;;;17.38;100.00
26489;BME280;14169;43.684;10.484;2022-10-16T01:02:58;102008.59;;;17.37;100.00
26489;BME280;14169;43.684;10.484;2022-10-16T01:05:47;102014.03;;;17.33;100.00
26489;BME280;14169;43.684;10.484;2022-10-16T01:08:50;102011.44;;;17.31;100.00
26489;BME280;14169;43.684;10.484;2022-10-16T01:14:24;102010.78;;;17.26;100.00
26489;BME280;14169;43.684;10.484;2022-10-16T01:21:51;102008.25;;;17.23;100.00
26489;BME280;14169;43.684;10.484;2022-10-16T01:24:33;102011.28;;;17.13;100.00
26489;BME280;14169;43.684;10.484;2022-10-16T01:29:58;102000.09;;;17.08;100.00
26489;BME280;14169;43.684;10.484;2022-10-16T01:37:47;102003.25;;;16.94;100.00
26489;BME280;14169;43.684;10.484;2022-10-16T01:40:16;102006.91;;;16.90;100.00
26489;BME280;14169;43.684;10.484;2022-10-16T01:42:48;102007.81;;;16.89;100.00
26489;BME280;14169;43.684;10.484;2022-10-16T01:45:17;102006.03;;;16.90;100.00
26489;BME280;14169;43.684;10.484;2022-10-16T01:47:45;102010.50;;;16.88;100.00
26489;BME280;14169;43.684;10.484;2022-10-16T01:50:12;102013.22;;;16.86;100.00
26489;BME280;14169;43.684;10.484;2022-10-16T01:52:43;102010.56;;;16.86;100.00
26489;BME280;14169;43.684;10.484;2022-10-16T01:55:10;102010.66;;;16.84;100.00
26489;BME280;14169;43.684;10.484;2022-10-16T01:57:40;102014.19;;;16.83;100.00
26489;BME280;14169;43.684;10.484;2022-10-16T02:00:09;102009.88;;;16.81;100.00
26489;BME280;14169;43.684;10.484;2022-10-16T02:02:38;102007.31;;;16.79;100.00
26489;BME280;14169;43.684;10.484;2022-10-16T02:07:37;102020.84;;;16.69;100.00
26489;BME280;14169;43.684;10.484;2022-10-16T02:10:03;102031.28;;;16.72;100.00
26489;BME280;14169;43.684;10.484;2022-10-16T02:12:33;102026.09;;;16.70;100.00
26489;BME280;14169;43.684;10.484;2022-10-16T02:15:00;102030.56;;;16.67;100.00
26489;BME280;14169;43.684;10.484;2022-10-16T02:17:25;102031.56;;;16.64;100.00
26489;BME280;14169;43.684;10.484;2022-10-16T02:19:53;102025.53;;;16.61;100.00
26489;BME280;14169;43.684;10.484;2022-10-16T02:22:46;102023.03;;;16.58;100.00
26489;BME280;14169;43.684;10.484;2022-10-16T02:25:36;102021.44;;;16.54;100.00
26489;BME280;14169;43.684;10.484;2022-10-16T02:28:16;102024.13;;;16.52;100.00
26489;BME280;14169;43.684;10.484;2022-10-16T02:30:45;102026.78;;;16.51;100.00
26489;BME280;14169;43.684;10.484;2022-10-16T02:33:14;102026.03;;;16.47;100.00
26489;BME280;14169;43.684;10.484;2022-10-16T02:35:41;102032.22;;;16.46;100.00
26489;BME280;14169;43.684;10.484;2022-10-16T02:38:09;102021.81;;;16.43;100.00
26489;BME280;14169;43.684;10.484;2022-10-16T02:40:35;102035.06;;;16.40;100.00
26489;BME280;14169;43.684;10.484;2022-10-16T02:43:03;102030.81;;;16.36;100.00
26489;BME280;14169;43.684;10.484;2022-10-16T02:45:29;102030.91;;;16.33;100.00
26489;BME280;14169;43.684;10.484;2022-10-16T02:47:55;102030.91;;;16.33;100.00
26489;BME280;14169;43.684;10.484;2022-10-16T02:50:20;102022.19;;;16.31;100.00
26489;BME280;14169;43.684;10.484;2022-10-16T02:52:46;102022.25;;;16.30;100.00
26489;BME280;14169;43.684;10.484;2022-10-16T02:55:11;102023.16;;;16.29;100.00
26489;BME280;14169;43.684;10.484;2022-10-16T02:57:37;102025.75;;;16.30;100.00
26489;BME280;14169;43.684;10.484;2022-10-16T03:00:04;102013.44;;;16.31;100.00
26489;BME280;14169;43.684;10.484;2022-10-16T03:02:30;102023.00;;;16.33;100.00
26489;BME280;14169;43.684;10.484;2022-10-16T03:04:55;102024.59;;;16.39;100.00
26489;BME280;14169;43.684;10.484;2022-10-16T03:07:21;102013.91;;;16.43;100.00
26489;BME280;14169;43.684;10.484;2022-10-16T03:09:46;102015.56;;;16.46;100.00
26489;BME280;14169;43.684;10.484;2022-10-16T03:12:11;102011.06;;;16.49;100.00
26489;BME280;14169;43.684;10.484;2022-10-16T03:14:37;102016.38;;;16.48;100.00
26489;BME280;14169;43.684;10.484;2022-10-16T03:17:02;102015.41;;;16.50;100.00
26489;BME280;14169;43.684;10.484;2022-10-16T03:19:28;102014.56;;;16.50;100.00
26489;BME280;14169;43.684;10.484;2022-10-16T03:21:53;102014.50;;;16.51;100.00
26489;BME280;14169;43.684;10.484;2022-10-16T03:24:19;102016.16;;;16.54;100.00
26489;BME280;14169;43.684;10.484;2022-10-16T03:26:44;102017.78;;;16.58;100.00
26489;BME280;14169;43.684;10.484;2022-10-16T03:29:09;102019.44;;;16.60;100.00
26489;BME280;14169;43.684;10.484;2022-10-16T03:31:35;102017.53;;;16.64;100.00
26489;BME280;14169;43.684;10.484;2022-10-16T03:34:00;102024.41;;;16.68;100.00
26489;BME280;14169;43.684;10.484;2022-10-16T03:36:25;102020.81;;;16.70;100.00
26489;BME280;14169;43.684;10.484;2022-10-16T03:38:51;102021.63;;;16.72;100.00
26489;BME280;14169;43.684;10.484;2022-10-16T03:41:16;102020.63;;;16.75;100.00
26489;BME280;14169;43.684;10.484;2022-10-16T03:43:42;102019.66;;;16.77;100.00
26489;BME280;14169;43.684;10.484;2022-10-16T03:46:07;102015.34;;;16.76;100.00
26489;BME280;14169;43.684;10.484;2022-10-16T03:48:33;102015.34;;;16.76;100.00
26489;BME280;14169;43.684;10.484;2022-10-16T03:50:58;102017.09;;;16.76;100.00
26489;BME280;14169;43.684;10.484;2022-10-16T03:53:24;102021.41;;;16.78;100.00
26489;BME280;14169;43.684;10.484;2022-10-16T03:55:50;102017.03;;;16.77;100.00
26489;BME280;14169;43.684;10.484;2022-10-16T03:58:16;102024.06;;;16.77;100.00
26489;BME280;14169;43.684;10.484;2022-10-16T04:00:44;102023.31;;;16.73;100.00
26489;BME280;14169;43.684;10.484;2022-10-16T04:03:10;102021.63;;;16.72;100.00
26489;BME280;14169;43.684;10.484;2022-10-16T04:05:36;102029.38;;;16.75;100.00
26489;BME280;14169;43.684;10.484;2022-10-16T04:08:02;102023.09;;;16.79;100.00
26489;BME280;14169;43.684;10.484;2022-10-16T04:10:28;102030.94;;;16.81;100.00
26489;BME280;14169;43.684;10.484;2022-10-16T04:12:53;102019.66;;;16.77;100.00
26489;BME280;14169;43.684;10.484;2022-10-16T04:15:24;102019.78;;;16.74;100.00
26489;BME280;14169;43.684;10.484;2022-10-16T04:17:50;102028.59;;;16.73;100.00
26489;BME280;14169;43.684;10.484;2022-10-16T04:20:16;102029.44;;;16.74;100.00
26489;BME280;14169;43.684;10.484;2022-10-16T04:22:41;102033.00;;;16.73;100.00
26489;BME280;14169;43.684;10.484;2022-10-16T04:25:07;102026.03;;;16.72;100.00
26489;BME280;14169;43.684;10.484;2022-10-16T04:27:32;102023.44;;;16.70;100.00
26489;BME280;14169;43.684;10.484;2022-10-16T04:29:59;102033.06;;;16.71;100.00
26489;BME280;14169;43.684;10.484;2022-10-16T04:32:24;102027.91;;;16.68;100.00
26489;BME280;14169;43.684;10.484;2022-10-16T04:34:51;102035.84;;;16.67;100.00
26489;BME280;14169;43.684;10.484;2022-10-16T04:37:16;102034.00;;;16.69;100.00
26489;BME280;14169;43.684;10.484;2022-10-16T04:39:42;102032.31;;;16.68;100.00
26489;BME280;14169;43.684;10.484;2022-10-16T04:42:07;102040.13;;;16.69;100.00
26489;BME280;14169;43.684;10.484;2022-10-16T04:44:32;102048.03;;;16.69;100.00
26489;BME280;14169;43.684;10.484;2022-10-16T04:46:58;102038.47;;;16.67;100.00
26489;BME280;14169;43.684;10.484;2022-10-16T04:49:23;102038.47;;;16.67;100.00
26489;BME280;14169;43.684;10.484;2022-10-16T04:51:49;102037.63;;;16.66;100.00
26489;BME280;14169;43.684;10.484;2022-10-16T04:54:14;102037.63;;;16.66;100.00
26489;BME280;14169;43.684;10.484;2022-10-16T04:56:39;102043.72;;;16.67;100.00
26489;BME280;14169;43.684;10.484;2022-10-16T04:59:12;102041.16;;;16.65;100.00
26489;BME280;14169;43.684;10.484;2022-10-16T05:01:38;102047.34;;;16.64;100.00
26489;BME280;14169;43.684;10.484;2022-10-16T05:04:04;102049.13;;;16.64;100.00
26489;BME280;14169;43.684;10.484;2022-10-16T05:06:29;102049.13;;;16.64;100.00
26489;BME280;14169;43.684;10.484;2022-10-16T05:08:55;102043.00;;;16.63;100.00
26489;BME280;14169;43.684;10.484;2022-10-16T05:11:20;102043.06;;;16.62;100.00
26489;BME280;14169;43.684;10.484;2022-10-16T05:13:45;102043.97;;;16.61;100.00
26489;BME280;14169;43.684;10.484;2022-10-16T05:16:11;102039.56;;;16.61;100.00
26489;BME280;14169;43.684;10.484;2022-10-16T05:18:36;102038.69;;;16.61;100.00
26489;BME280;14169;43.684;10.484;2022-10-16T05:21:02;102045.78;;;16.59;100.00
26489;BME280;14169;43.684;10.484;2022-10-16T05:23:27;102047.59;;;16.58;100.00
26489;BME280;14169;43.684;10.484;2022-10-16T05:25:57;102043.28;;;16.56;100.00
26489;BME280;14169;43.684;10.484;2022-10-16T05:28:24;102049.44;;;16.55;100.00
26489;BME280;14169;43.684;10.484;2022-10-16T05:30:50;102054.66;;;16.56;100.00
26489;BME280;14169;43.684;10.484;2022-10-16T05:33:15;102054.69;;;16.55;100.00
26489;BME280;14169;43.684;10.484;2022-10-16T05:35:41;102058.19;;;16.55;100.00
26489;BME280;14169;43.684;10.484;2022-10-16T05:38:06;102065.22;;;16.55;100.00
26489;BME280;14169;43.684;10.484;2022-10-16T05:40:32;102067.81;;;16.56;100.00
26489;BME280;14169;43.684;10.484;2022-10-16T05:42:57;102063.38;;;16.58;100.00
26489;BME280;14169;43.684;10.484;2022-10-16T05:45:23;102061.56;;;16.59;100.00
26489;BME280;14169;43.684;10.484;2022-10-16T05:47:48;102067.63;;;16.61;100.00
26489;BME280;14169;43.684;10.484;2022-10-16T05:50:13;102063.25;;;16.61;100.00
26489;BME280;14169;43.684;10.484;2022-10-16T05:52:39;102075.50;;;16.62;100.00
26489;BME280;14169;43.684;10.484;2022-10-16T05:55:04;102071.94;;;16.63;100.00
26489;BME280;14169;43.684;10.484;2022-10-16T05:57:30;102080.53;;;16.68;100.00
26489;BME280;14169;43.684;10.484;2022-10-16T05:59:56;102075.06;;;16.74;100.00
26489;BME280;14169;43.684;10.484;2022-10-16T06:02:21;102087.19;;;16.78;100.00
26489;BME280;14169;43.684;10.484;2022-10-16T06:04:47;102089.72;;;16.81;100.00
26489;BME280;14169;43.684;10.484;2022-10-16T06:07:12;102090.34;;;16.88;100.00
26489;BME280;14169;43.684;10.484;2022-10-16T06:09:38;102094.66;;;16.91;100.00
26489;BME280;14169;43.684;10.484;2022-10-16T06:12:03;102093.59;;;16.95;100.00
26489;BME280;14169;43.684;10.484;2022-10-16T06:14:28;102101.41;;;16.98;100.00
26489;BME280;14169;43.684;10.484;2022-10-16T06:16:54;102104.72;;;17.03;100.00
26489;BME280;14169;43.684;10.484;2022-10-16T06:19:19;102107.19;;;17.07;100.00
26489;BME280;14169;43.684;10.484;2022-10-16T06:21:45;102112.34;;;17.10;100.00
26489;BME280;14169;43.684;10.484;2022-10-16T06:24:10;102109.75;;;17.09;100.00
26489;BME280;14169;43.684;10.484;2022-10-16T06:26:37;102106.00;;;17.16;100.00
26489;BME280;14169;43.684;10.484;2022-10-16T06:29:02;102110.16;;;17.21;100.00
26489;BME280;14169;43.684;10.484;2022-10-16T06:31:28;102113.44;;;17.28;100.00
26489;BME280;14169;43.684;10.484;2022-10-16T06:33:56;102111.34;;;17.37;100.00
26489;BME280;14169;43.684;10.484;2022-10-16T06:36:22;102114.59;;;17.44;100.00
26489;BME280;14169;43.684;10.484;2022-10-16T06:38:47;102126.91;;;17.43;100.00
26489;BME280;14169;43.684;10.484;2022-10-16T06:41:16;102130.41;;;17.44;100.00
26489;BME280;14169;43.684;10.484;2022-10-16T06:43:41;102128.56;;;17.46;100.00
26489;BME280;14169;43.684;10.484;2022-10-16T06:46:09;102141.03;;;17.42;100.00
26489;BME280;14169;43.684;10.484;2022-10-16T06:48:36;102131.31;;;17.43;100.00
26489;BME280;14169;43.684;10.484;2022-10-16T06:53:31;102131.66;;;17.57;100.00
26489;BME280;14169;43.684;10.484;2022-10-16T06:55:57;102143.78;;;17.61;100.00
26489;BME280;14169;43.684;10.484;2022-10-16T06:58:23;102143.44;;;17.70;100.00
26489;BME280;14169;43.684;10.484;2022-10-16T07:00:48;102151.84;;;17.80;100.00
26489;BME280;14169;43.684;10.484;2022-10-16T07:03:14;102148.28;;;17.81;100.00
26489;BME280;14169;43.684;10.484;2022-10-16T07:05:41;102160.56;;;17.82;100.00
26489;BME280;14169;43.684;10.484;2022-10-16T07:08:08;102156.81;;;17.87;100.00
26489;BME280;14169;43.684;10.484;2022-10-16T07:10:34;102161.97;;;17.90;100.00
26489;BME280;14169;43.684;10.484;2022-10-16T07:13:00;102161.59;;;17.99;100.00
26489;BME280;14169;43.684;10.484;2022-10-16T07:15:26;102168.53;;;18.02;100.00
26489;BME280;14169;43.684;10.484;2022-10-16T07:17:52;102175.44;;;18.27;100.00
26489;BME280;14169;43.684;10.484;2022-10-16T07:20:17;102175.41;;;18.49;100.00
26489;BME280;14169;43.684;10.484;2022-10-16T07:22:43;102175.69;;;18.63;100.00
26489;BME280;14169;43.684;10.484;2022-10-16T07:25:08;102180.00;;;18.86;100.00
26489;BME280;14169;43.684;10.484;2022-10-16T07:27:34;102182.28;;;18.93;100.00
26489;BME280;14169;43.684;10.484;2022-10-16T07:30:00;102190.06;;;18.96;100.00
26489;BME280;14169;43.684;10.484;2022-10-16T07:32:26;102192.50;;;19.01;100.00
26489;BME280;14169;43.684;10.484;2022-10-16T07:34:52;102206.69;;;19.20;100.00
26489;BME280;14169;43.684;10.484;2022-10-16T07:37:18;102207.84;;;19.33;100.00
26489;BME280;14169;43.684;10.484;2022-10-16T07:39:44;102213.78;;;19.38;100.00
26489;BME280;14169;43.684;10.484;2022-10-16T07:42:09;102223.19;;;19.64;100.00
26489;BME280;14169;43.684;10.484;2022-10-16T07:44:34;102227.59;;;19.63;100.00
26489;BME280;14169;43.684;10.484;2022-10-16T07:47:00;102228.97;;;19.72;100.00
26489;BME280;14169;43.684;10.484;2022-10-16T07:49:25;102238.25;;;19.80;100.00
26489;BME280;14169;43.684;10.484;2022-10-16T07:51:51;102245.66;;;19.92;100.00
26489;BME280;14169;43.684;10.484;2022-10-16T07:54:16;102246.91;;;20.40;100.00
26489;BME280;14169;43.684;10.484;2022-10-16T07:56:42;102253.50;;;20.67;100.00
26489;BME280;14169;43.684;10.484;2022-10-16T07:59:07;102255.66;;;20.59;100.00
26489;BME280;14169;43.684;10.484;2022-10-16T08:01:33;102264.69;;;20.55;100.00
26489;BME280;14169;43.684;10.484;2022-10-16T08:03:58;102266.75;;;20.48;100.00
26489;BME280;14169;43.684;10.484;2022-10-16T08:06:23;102270.19;;;20.50;100.00
26489;BME280;14169;43.684;10.484;2022-10-16T08:08:49;102274.06;;;20.62;100.00
26489;BME280;14169;43.684;10.484;2022-10-16T08:11:15;102270.38;;;20.64;100.00
26489;BME280;14169;43.684;10.484;2022-10-16T08:13:41;102279.97;;;20.67;100.00
26489;BME280;14169;43.684;10.484;2022-10-16T08:16:06;102293.69;;;20.93;100.00
26489;BME280;14169;43.684;10.484;2022-10-16T08:18:37;102288.59;;;21.40;100.00
26489;BME280;14169;43.684;10.484;2022-10-16T08:21:03;102284.97;;;21.75;100.00
26489;BME280;14169;43.684;10.484;2022-10-16T08:23:30;102295.81;;;22.04;100.00
26489;BME280;14169;43.684;10.484;2022-10-16T08:25:56;102295.88;;;22.18;100.00
26489;BME280;14169;43.684;10.484;2022-10-16T08:28:26;102299.47;;;22.17;100.00
26489;BME280;14169;43.684;10.484;2022-10-16T08:30:51;102300.94;;;22.07;100.00
26489;BME280;14169;43.684;10.484;2022-10-16T08:33:17;102311.88;;;22.33;100.00
26489;BME280;14169;43.684;10.484;2022-10-16T08:35:42;102300.63;;;22.44;100.00
26489;BME280;14169;43.684;10.484;2022-10-16T08:38:08;102317.41;;;22.44;100.00
26489;BME280;14169;43.684;10.484;2022-10-16T08:40:36;102321.44;;;22.36;100.00
26489;BME280;14169;43.684;10.484;2022-10-16T08:46:15;102329.25;;;22.23;100.00
26489;BME280;14169;43.684;10.484;2022-10-16T08:51:18;102327.16;;;22.75;100.00
26489;BME280;14169;43.684;10.484;2022-10-16T08:54:25;102320.81;;;22.93;100.00
26489;BME280;14169;43.684;10.484;2022-10-16T08:57:09;102320.19;;;23.04;100.00
26489;BME280;14169;43.684;10.484;2022-10-16T08:59:36;102320.00;;;23.07;100.00
26489;BME280;14169;43.684;10.484;2022-10-16T09:02:02;102331.38;;;22.95;100.00
26489;BME280;14169;43.684;10.484;2022-10-16T09:08:00;102338.75;;;23.49;100.00
26489;BME280;14169;43.684;10.484;2022-10-16T09:16:24;102334.13;;;23.67;100.00
26489;BME280;14169;43.684;10.484;2022-10-16T09:21:39;102328.44;;;24.01;100.00
26489;BME280;14169;43.684;10.484;2022-10-16T09:24:14;102328.41;;;24.29;100.00
26489;BME280;14169;43.684;10.484;2022-10-16T09:26:40;102329.69;;;24.50;100.00
26489;BME280;14169;43.684;10.484;2022-10-16T09:29:05;102330.19;;;24.69;100.00
26489;BME280;14169;43.684;10.484;2022-10-16T09:31:31;102322.94;;;24.59;100.00
26489;BME280;14169;43.684;10.484;2022-10-16T09:34:00;102319.75;;;24.66;100.00
26489;BME280;14169;43.684;10.484;2022-10-16T09:36:36;102308.69;;;24.72;100.00
26489;BME280;14169;43.684;10.484;2022-10-16T09:39:06;102310.09;;;25.04;100.00
26489;BME280;14169;43.684;10.484;2022-10-16T09:41:35;102297.28;;;25.09;100.00
26489;BME280;14169;43.684;10.484;2022-10-16T09:44:04;102293.69;;;25.10;100.00
26489;BME280;14169;43.684;10.484;2022-10-16T09:46:35;102289.41;;;25.21;100.00
26489;BME280;14169;43.684;10.484;2022-10-16T09:49:05;102285.03;;;25.19;100.00
26489;BME280;14169;43.684;10.484;2022-10-16T09:51:33;102282.34;;;25.19;100.00
26489;BME280;14169;43.684;10.484;2022-10-16T09:56:36;102276.81;;;25.48;100.00
26489;BME280;14169;43.684;10.484;2022-10-16T10:01:47;102275.88;;;25.61;100.00
26489;BME280;14169;43.684;10.484;2022-10-16T10:04:14;102274.72;;;25.65;100.00
26489;BME280;14169;43.684;10.484;2022-10-16T10:06:45;102272.34;;;25.86;100.00
26489;BME280;14169;43.684;10.484;2022-10-16T10:14:30;102271.81;;;26.53;100.00
26489;BME280;14169;43.684;10.484;2022-10-16T10:17:10;102269.50;;;26.72;100.00
26489;BME280;14169;43.684;10.484;2022-10-16T10:19:51;102263.41;;;26.70;100.00
26489;BME280;14169;43.684;10.484;2022-10-16T10:22:42;102276.50;;;26.97;100.00
26489;BME280;14169;43.684;10.484;2022-10-16T10:33:36;102264.50;;;27.71;100.00
26489;BME280;14169;43.684;10.484;2022-10-16T10:44:08;102272.84;;;27.44;100.00
26489;BME280;14169;43.684;10.484;2022-10-16T10:46:57;102260.66;;;27.29;100.00
26489;BME280;14169;43.684;10.484;2022-10-16T10:54:49;102263.31;;;27.18;100.00
26489;BME280;14169;43.684;10.484;2022-10-16T10:57:30;102258.81;;;26.83;100.00
26489;BME280;14169;43.684;10.484;2022-10-16T11:05:41;102266.19;;;26.45;100.00
26489;BME280;14169;43.684;10.484;2022-10-16T11:08:44;102266.59;;;26.52;100.00
26489;BME280;14169;43.684;10.484;2022-10-16T11:13:37;102259.00;;;27.61;100.00
26489;BME280;14169;43.684;10.484;2022-10-16T11:16:19;102251.69;;;28.18;100.00
26489;BME280;14169;43.684;10.484;2022-10-16T11:18:55;102248.34;;;28.69;100.00
26489;BME280;14169;43.684;10.484;2022-10-16T11:21:22;102250.88;;;29.02;100.00
26489;BME280;14169;43.684;10.484;2022-10-16T11:23:56;102248.88;;;29.45;100.00
26489;BME280;14169;43.684;10.484;2022-10-16T11:26:27;102250.19;;;29.81;100.00
26489;BME280;14169;43.684;10.484;2022-10-16T11:28:56;102249.31;;;30.20;100.00
26489;BME280;14169;43.684;10.484;2022-10-16T11:36:49;102241.34;;;31.33;100.00
26489;BME280;14169;43.684;10.484;2022-10-16T11:49:28;102225.69;;;30.43;89.25
26489;BME280;14169;43.684;10.484;2022-10-16T11:54:59;102223.03;;;30.62;86.07
26489;BME280;14169;43.684;10.484;2022-10-16T11:57:31;102215.78;;;30.24;85.52
26489;BME280;14169;43.684;10.484;2022-10-16T12:00:22;102222.75;;;29.57;86.74
26489;BME280;14169;43.684;10.484;2022-10-16T12:02:51;102221.06;;;29.05;88.10
26489;BME280;14169;43.684;10.484;2022-10-16T12:08:22;102221.97;;;28.10;95.39
26489;BME280;14169;43.684;10.484;2022-10-16T12:10:48;102227.34;;;27.55;99.06
26489;BME280;14169;43.684;10.484;2022-10-16T12:13:33;102219.13;;;27.01;100.00
26489;BME280;14169;43.684;10.484;2022-10-16T12:18:41;102222.56;;;26.79;100.00
26489;BME280;14169;43.684;10.484;2022-10-16T12:21:08;102224.91;;;26.84;100.00
26489;BME280;14169;43.684;10.484;2022-10-16T12:23:37;102226.78;;;26.95;100.00
26489;BME280;14169;43.684;10.484;2022-10-16T12:26:05;102224.38;;;27.14;100.00
26489;BME280;14169;43.684;10.484;2022-10-16T12:28:34;102220.16;;;27.44;100.00
26489;BME280;14169;43.684;10.484;2022-10-16T12:31:03;102219.22;;;27.79;100.00
26489;BME280;14169;43.684;10.484;2022-10-16T12:33:32;102214.91;;;28.09;100.00
26489;BME280;14169;43.684;10.484;2022-10-16T12:36:01;102217.88;;;28.38;100.00
26489;BME280;14169;43.684;10.484;2022-10-16T12:43:40;102218.25;;;28.65;94.50
26489;BME280;14169;43.684;10.484;2022-10-16T12:48:41;102212.00;;;28.44;94.55
26489;BME280;14169;43.684;10.484;2022-10-16T12:51:22;102218.53;;;28.19;96.15
26489;BME280;14169;43.684;10.484;2022-10-16T12:54:03;102215.94;;;28.29;97.02
26489;BME280;14169;43.684;10.484;2022-10-16T13:02:24;102213.50;;;28.58;96.40
26489;BME280;14169;43.684;10.484;2022-10-16T13:25:27;102217.00;;;28.37;94.85
26489;BME280;14169;43.684;10.484;2022-10-16T13:28:06;102208.22;;;28.04;96.82
26489;BME280;14169;43.684;10.484;2022-10-16T13:31:01;102217.06;;;28.15;97.38
26489;BME280;14169;43.684;10.484;2022-10-16T13:33:39;102216.63;;;28.42;97.74
26489;BME280;14169;43.684;10.484;2022-10-16T13:36:06;102216.44;;;28.23;95.67
26489;BME280;14169;43.684;10.484;2022-10-16T13:38:35;102214.19;;;27.85;98.75
26489;BME280;14169;43.684;10.484;2022-10-16T13:41:06;102222.97;;;27.65;99.79
26489;BME280;14169;43.684;10.484;2022-10-16T13:46:12;102232.31;;;27.37;100.00
26489;BME280;14169;43.684;10.484;2022-10-16T13:48:37;102227.41;;;27.09;100.00
26489;BME280;14169;43.684;10.484;2022-10-16T13:51:13;102236.47;;;26.61;100.00
26489;BME280;14169;43.684;10.484;2022-10-16T13:53:39;102234.91;;;26.58;100.00
26489;BME280;14169;43.684;10.484;2022-10-16T13:56:10;102232.00;;;26.61;100.00
26489;BME280;14169;43.684;10.484;2022-10-16T13:58:37;102240.28;;;26.69;100.00
26489;BME280;14169;43.684;10.484;2022-10-16T14:01:04;102235.94;;;26.79;100.00
26489;BME280;14169;43.684;10.484;2022-10-16T14:03:32;102237.66;;;26.80;100.00
26489;BME280;14169;43.684;10.484;2022-10-16T14:06:01;102236.47;;;26.61;100.00
26489;BME280;14169;43.684;10.484;2022-10-16T14:08:29;102237.50;;;26.47;100.00
26489;BME280;14169;43.684;10.484;2022-10-16T14:11:00;102244.59;;;26.25;100.00
26489;BME280;14169;43.684;10.484;2022-10-16T14:13:45;102248.72;;;25.92;100.00
26489;BME280;14169;43.684;10.484;2022-10-16T14:16:17;102238.81;;;25.82;100.00
26489;BME280;14169;43.684;10.484;2022-10-16T14:18:46;102242.22;;;25.71;100.00
26489;BME280;14169;43.684;10.484;2022-10-16T14:21:16;102242.34;;;25.70;100.00
26489;BME280;14169;43.684;10.484;2022-10-16T14:23:42;102238.09;;;25.55;100.00
26489;BME280;14169;43.684;10.484;2022-10-16T14:28:34;102238.72;;;25.33;100.00
26489;BME280;14169;43.684;10.484;2022-10-16T14:31:01;102244.59;;;25.26;100.00
26489;BME280;14169;43.684;10.484;2022-10-16T14:36:22;102245.22;;;25.16;100.00
26489;BME280;14169;43.684;10.484;2022-10-16T14:39:06;102247.91;;;25.16;100.00
26489;BME280;14169;43.684;10.484;2022-10-16T14:41:45;102244.16;;;25.32;100.00
26489;BME280;14169;43.684;10.484;2022-10-16T14:44:11;102240.75;;;25.30;100.00
26489;BME280;14169;43.684;10.484;2022-10-16T14:46:39;102242.84;;;24.99;100.00
26489;BME280;14169;43.684;10.484;2022-10-16T14:51:38;102253.09;;;24.66;100.00
26489;BME280;14169;43.684;10.484;2022-10-16T14:54:08;102249.16;;;24.72;100.00
26489;BME280;14169;43.684;10.484;2022-10-16T14:57:18;102248.00;;;24.37;100.00
26489;BME280;14169;43.684;10.484;2022-10-16T14:59:45;102248.13;;;24.21;100.00
26489;BME280;14169;43.684;10.484;2022-10-16T15:02:28;102249.56;;;24.12;100.00
26489;BME280;14169;43.684;10.484;2022-10-16T15:04:54;102258.44;;;23.99;100.00
26489;BME280;14169;43.684;10.484;2022-10-16T15:07:21;102257.31;;;23.89;100.00